createdAt,value
2018-12-29T00:02:28.322Z,96680.13
2018-12-29T00:04:57.372Z,96681.44
2018-12-29T00:07:27.235Z,96683.25
2018-12-29T00:09:56.463Z,96689.38
2018-12-29T00:12:25.542Z,96688.21
2018-12-29T00:14:55.127Z,96688.97
2018-12-29T00:17:23.859Z,96691.37
2018-12-29T00:19:52.950Z,96697.27
2018-12-29T00:22:22.117Z,96696.57
2018-12-29T00:24:51.567Z,96704.09
2018-12-29T00:27:20.655Z,96698.25
2018-12-29T00:29:51.507Z,96703.69
2018-12-29T00:32:20.916Z,96704.62
2018-12-29T00:34:50.061Z,96710.30
2018-12-29T00:37:19.100Z,96706.72
2018-12-29T00:39:48.163Z,96700.77
2018-12-29T00:42:17.238Z,96704.38
2018-12-29T00:44:46.313Z,96695.66
2018-12-29T00:47:15.391Z,96695.44
2018-12-29T00:49:44.464Z,96696.72
2018-12-29T00:52:22.973Z,96700.06
2018-12-29T00:54:52.643Z,96703.14
2018-12-29T00:57:21.856Z,96701.52
2018-12-29T00:59:51.048Z,96702.04
2018-12-29T01:02:20.127Z,96706.55
2018-12-29T01:04:49.162Z,96717.80
2018-12-29T01:07:18.338Z,96722.75
2018-12-29T01:09:47.467Z,96724.66
2018-12-29T01:12:16.535Z,96729.78
2018-12-29T01:14:51.877Z,96728.48
2018-12-29T01:17:20.938Z,96732.11
2018-12-29T01:19:51.030Z,96731.03
2018-12-29T01:22:20.076Z,96740.91
2018-12-29T01:24:49.174Z,96741.49
2018-12-29T01:27:18.202Z,96739.54
2018-12-29T01:29:48.195Z,96745.72
2018-12-29T01:32:17.266Z,96743.05
2018-12-29T01:34:46.341Z,96744.83
2018-12-29T01:37:15.391Z,96745.39
2018-12-29T01:39:44.467Z,96743.72
2018-12-29T01:42:13.536Z,96750.70
2018-12-29T01:44:42.615Z,96749.30
2018-12-29T01:49:47.447Z,96746.10
2018-12-29T01:52:18.418Z,96747.41
2018-12-29T01:54:47.501Z,96746.72
2018-12-29T01:57:16.595Z,96742.97
2018-12-29T01:59:45.721Z,96735.96
2018-12-29T02:02:14.802Z,96732.62
2018-12-29T02:04:43.858Z,96734.73
2018-12-29T02:07:12.943Z,96722.17
2018-12-29T02:09:42.017Z,96719.27
2018-12-29T02:12:11.080Z,96718.57
2018-12-29T02:14:41.156Z,96730.10
2018-12-29T02:17:10.234Z,96733.17
2018-12-29T02:19:39.304Z,96739.23
2018-12-29T02:22:08.367Z,96740.39
2018-12-29T02:24:37.958Z,96745.72
2018-12-29T02:27:06.548Z,96742.61
2018-12-29T02:29:35.612Z,96745.48
2018-12-29T02:32:04.711Z,96740.97
2018-12-29T02:34:33.771Z,96738.78
2018-12-29T02:37:02.861Z,96736.19
2018-12-29T02:39:31.919Z,96741.39
2018-12-29T02:42:01.046Z,96746.13
2018-12-29T02:44:30.223Z,96747.30
2018-12-29T02:46:59.302Z,96742.17
2018-12-29T02:49:31.702Z,96742.00
2018-12-29T02:52:00.772Z,96738.14
2018-12-29T02:54:29.837Z,96746.60
2018-12-29T02:56:58.916Z,96748.98
2018-12-29T03:02:07.710Z,96748.88
2018-12-29T03:04:36.813Z,96751.93
2018-12-29T03:07:05.892Z,96748.43
2018-12-29T03:09:34.990Z,96752.25
2018-12-29T03:14:08.751Z,96758.16
2018-12-29T03:16:37.875Z,96755.55
2018-12-29T03:19:07.004Z,96755.76
2018-12-29T03:21:36.201Z,96759.89
2018-12-29T03:24:05.238Z,96755.39
2018-12-29T03:26:34.330Z,96750.72
2018-12-29T03:29:03.391Z,96731.76
2018-12-29T03:31:32.480Z,96723.73
2018-12-29T03:34:01.559Z,96728.38
2018-12-29T03:36:30.620Z,96727.98
2018-12-29T03:38:59.683Z,96730.48
2018-12-29T03:41:28.753Z,96719.42
2018-12-29T03:43:57.877Z,96714.16
2018-12-29T03:46:26.885Z,96718.05
2018-12-29T03:49:10.534Z,96713.77
2018-12-29T03:51:39.597Z,96703.53
2018-12-29T03:54:08.678Z,96708.39
2018-12-29T03:56:37.813Z,96709.13
2018-12-29T03:59:06.863Z,96714.77
2018-12-29T04:01:35.970Z,96716.61
2018-12-29T04:04:05.093Z,96719.12
2018-12-29T04:06:34.173Z,96726.90
2018-12-29T04:14:17.642Z,96714.41
2018-12-29T04:16:46.718Z,96707.84
2018-12-29T04:19:15.774Z,96703.77
2018-12-29T04:21:44.896Z,96708.16
2018-12-29T04:24:14.976Z,96721.15
2018-12-29T04:26:45.043Z,96722.62
2018-12-29T04:29:14.109Z,96714.28
2018-12-29T04:31:44.170Z,96716.45
2018-12-29T04:34:13.225Z,96701.80
2018-12-29T04:36:42.276Z,96710.58
2018-12-29T04:39:11.363Z,96724.31
2018-12-29T04:41:40.513Z,96723.86
2018-12-29T04:44:09.596Z,96721.21
2018-12-29T04:46:38.699Z,96731.34
2018-12-29T04:49:07.771Z,96730.48
2018-12-29T04:51:36.916Z,96726.05
2018-12-29T04:54:08.780Z,96725.92
2018-12-29T04:56:37.834Z,96730.39
2018-12-29T04:59:06.921Z,96733.73
2018-12-29T05:01:35.989Z,96742.02
2018-12-29T05:04:05.045Z,96753.95
2018-12-29T05:06:34.125Z,96753.08
2018-12-29T05:09:04.281Z,96761.55
2018-12-29T05:11:33.338Z,96774.65
2018-12-29T05:14:02.410Z,96768.42
2018-12-29T05:16:31.475Z,96775.03
2018-12-29T05:19:00.549Z,96783.96
2018-12-29T05:21:30.586Z,96792.22
2018-12-29T05:23:59.649Z,96798.59
2018-12-29T05:26:28.763Z,96808.56
2018-12-29T05:28:57.835Z,96808.34
2018-12-29T05:31:26.933Z,96803.72
2018-12-29T05:33:56.018Z,96805.77
2018-12-29T05:36:25.111Z,96799.69
2018-12-29T05:38:54.244Z,96799.00
2018-12-29T05:41:23.320Z,96795.17
2018-12-29T05:43:52.398Z,96796.73
2018-12-29T05:46:21.479Z,96785.66
2018-12-29T05:48:50.594Z,96780.17
2018-12-29T05:51:19.656Z,96786.49
2018-12-29T05:53:48.727Z,96797.08
2018-12-29T05:56:17.988Z,96798.41
2018-12-29T05:58:55.078Z,96806.14
2018-12-29T06:01:24.181Z,96800.02
2018-12-29T06:03:53.223Z,96807.68
2018-12-29T06:06:22.293Z,96816.23
2018-12-29T06:08:51.375Z,96811.56
2018-12-29T06:11:20.484Z,96824.41
2018-12-29T06:13:49.547Z,96823.46
2018-12-29T06:16:18.700Z,96822.37
2018-12-29T06:18:47.747Z,96820.61
2018-12-29T06:23:55.186Z,96809.17
2018-12-29T06:26:24.943Z,96793.84
2018-12-29T06:28:54.032Z,96805.44
2018-12-29T06:31:23.119Z,96807.73
2018-12-29T06:33:52.711Z,96804.42
2018-12-29T06:36:22.723Z,96807.98
2018-12-29T06:38:51.809Z,96812.14
2018-12-29T06:41:20.911Z,96814.69
2018-12-29T06:43:50.093Z,96813.69
2018-12-29T06:46:34.685Z,96814.79
2018-12-29T06:48:57.510Z,96821.31
2018-12-29T06:51:26.616Z,96821.28
2018-12-29T06:53:55.707Z,96822.23
2018-12-29T06:56:24.783Z,96824.94
2018-12-29T06:58:54.871Z,96824.27
2018-12-29T07:01:23.939Z,96834.92
2018-12-29T07:03:53.944Z,96836.03
2018-12-29T07:08:58.751Z,96831.09
2018-12-29T07:11:27.836Z,96840.41
2018-12-29T07:13:56.940Z,96838.00
2018-12-29T07:16:26.007Z,96835.66
2018-12-29T07:18:55.075Z,96838.73
2018-12-29T07:21:24.141Z,96845.24
2018-12-29T07:23:53.210Z,96847.76
2018-12-29T07:26:22.275Z,96851.80
2018-12-29T07:28:51.382Z,96846.75
2018-12-29T07:33:56.195Z,96862.78
2018-12-29T07:36:25.284Z,96864.80
2018-12-29T07:38:54.367Z,96865.29
2018-12-29T07:41:23.467Z,96870.51
2018-12-29T07:43:52.535Z,96865.23
2018-12-29T07:46:21.599Z,96860.69
2018-12-29T07:48:50.759Z,96868.78
2018-12-29T07:51:19.812Z,96875.06
2018-12-29T07:53:48.883Z,96872.55
2018-12-29T07:56:18.974Z,96875.23
2018-12-29T07:58:48.055Z,96879.99
2018-12-29T08:01:17.183Z,96886.58
2018-12-29T08:03:46.265Z,96892.70
2018-12-29T08:06:15.369Z,96891.95
2018-12-29T08:11:20.150Z,96894.23
2018-12-29T08:13:50.220Z,96897.04
2018-12-29T08:16:19.285Z,96902.81
2018-12-29T08:18:48.358Z,96899.45
2018-12-29T08:21:18.740Z,96905.13
2018-12-29T08:23:46.518Z,96901.52
2018-12-29T08:26:15.583Z,96900.37
2018-12-29T08:28:45.297Z,96900.31
2018-12-29T08:31:13.964Z,96895.86
2018-12-29T08:33:43.030Z,96896.03
2018-12-29T08:36:12.100Z,96895.03
2018-12-29T08:38:41.211Z,96895.73
2018-12-29T08:41:10.286Z,96894.74
2018-12-29T08:43:39.353Z,96895.89
2018-12-29T08:46:08.422Z,96894.45
2018-12-29T08:48:37.492Z,96905.52
2018-12-29T08:51:06.562Z,96902.52
2018-12-29T08:53:35.615Z,96903.88
2018-12-29T08:56:04.689Z,96909.33
2018-12-29T08:58:33.934Z,96907.05
2018-12-29T09:01:02.969Z,96903.26
2018-12-29T09:03:32.154Z,96899.66
2018-12-29T09:06:01.535Z,96905.31
2018-12-29T09:08:30.567Z,96910.66
2018-12-29T09:10:59.732Z,96911.50
2018-12-29T09:13:28.835Z,96905.97
2018-12-29T09:15:57.901Z,96909.62
2018-12-29T09:18:26.967Z,96905.53
2018-12-29T09:20:56.004Z,96914.75
2018-12-29T09:23:31.209Z,96923.38
2018-12-29T09:26:00.248Z,96926.88
2018-12-29T09:28:29.305Z,96932.38
2018-12-29T09:30:58.363Z,96934.09
2018-12-29T09:33:27.452Z,96925.14
2018-12-29T09:35:56.510Z,96923.73
2018-12-29T09:38:25.572Z,96924.41
2018-12-29T09:40:54.658Z,96928.59
2018-12-29T09:43:23.703Z,96935.22
2018-12-29T09:45:52.748Z,96930.95
2018-12-29T09:48:21.798Z,96927.09
2018-12-29T09:50:50.830Z,96919.91
2018-12-29T09:53:19.891Z,96920.22
2018-12-29T09:55:48.935Z,96914.72
2018-12-29T09:58:17.999Z,96914.70
2018-12-29T10:00:47.039Z,96921.26
2018-12-29T10:05:59.095Z,96920.50
2018-12-29T10:08:28.119Z,96923.08
2018-12-29T10:13:32.875Z,96923.36
2018-12-29T10:16:01.911Z,96923.87
2018-12-29T10:18:30.959Z,96921.06
2018-12-29T10:21:00.006Z,96932.44
2018-12-29T10:23:29.051Z,96931.02
2018-12-29T10:25:58.135Z,96929.94
2018-12-29T10:28:27.187Z,96928.59
2018-12-29T10:30:57.242Z,96924.98
2018-12-29T10:33:26.291Z,96924.02
2018-12-29T10:35:55.431Z,96925.48
2018-12-29T10:38:24.457Z,96927.77
2018-12-29T10:40:53.523Z,96927.05
2018-12-29T10:43:22.622Z,96925.61
2018-12-29T10:45:51.808Z,96928.72
2018-12-29T10:48:21.657Z,96931.67
2018-12-29T10:50:50.732Z,96937.41
2018-12-29T10:55:56.080Z,96918.97
2018-12-29T10:58:25.256Z,96913.47
2018-12-29T11:00:54.295Z,96921.64
2018-12-29T11:03:23.359Z,96929.45
2018-12-29T11:08:28.108Z,96934.80
2018-12-29T11:10:57.317Z,96929.79
2018-12-29T11:13:26.414Z,96931.25
2018-12-29T11:15:55.440Z,96926.50
2018-12-29T11:18:24.500Z,96922.53
2018-12-29T11:20:53.806Z,96924.44
2018-12-29T11:23:22.877Z,96915.58
2018-12-29T11:25:51.912Z,96912.25
2018-12-29T11:28:21.002Z,96903.75
2018-12-29T11:33:25.876Z,96902.20
2018-12-29T11:35:58.482Z,96896.26
2018-12-29T11:38:31.988Z,96897.97
2018-12-29T11:43:46.156Z,96904.84
2018-12-29T11:46:18.900Z,96904.45
2018-12-29T11:48:50.395Z,96900.47
2018-12-29T11:51:26.886Z,96897.05
2018-12-29T11:54:01.696Z,96899.11
2018-12-29T11:59:13.569Z,96889.30
2018-12-29T12:01:49.332Z,96886.14
2018-12-29T12:06:59.747Z,96880.45
2018-12-29T12:09:34.975Z,96878.50
2018-12-29T12:14:44.308Z,96872.91
2018-12-29T12:17:16.539Z,96862.61
2018-12-29T12:19:49.382Z,96865.48
2018-12-29T12:24:57.657Z,96862.20
2018-12-29T12:27:29.146Z,96859.89
2018-12-29T12:30:04.301Z,96860.60
2018-12-29T12:32:36.856Z,96857.94
2018-12-29T12:35:06.549Z,96861.47
2018-12-29T12:37:37.185Z,96853.95
2018-12-29T12:40:06.248Z,96851.00
2018-12-29T12:42:37.599Z,96844.89
2018-12-29T12:45:06.822Z,96845.58
2018-12-29T12:47:40.912Z,96837.41
2018-12-29T12:50:10.118Z,96841.55
2018-12-29T12:52:39.279Z,96840.35
2018-12-29T12:55:08.340Z,96836.43
2018-12-29T12:57:38.441Z,96836.50
2018-12-29T13:00:07.746Z,96833.88
2018-12-29T13:02:36.802Z,96832.98
2018-12-29T13:05:06.744Z,96831.22
2018-12-29T13:07:35.982Z,96831.78
2018-12-29T13:10:05.086Z,96829.20
2018-12-29T13:12:34.131Z,96832.02
2018-12-29T13:15:07.355Z,96833.78
2018-12-29T13:17:36.588Z,96836.73
2018-12-29T13:20:05.970Z,96834.73
2018-12-29T13:22:35.020Z,96842.08
2018-12-29T13:25:04.733Z,96843.38
2018-12-29T13:27:36.888Z,96843.61
2018-12-29T13:30:09.322Z,96838.33
2018-12-29T13:35:15.752Z,96834.50
2018-12-29T13:37:45.275Z,96837.59
2018-12-29T13:40:14.336Z,96829.45
2018-12-29T13:42:43.756Z,96824.48
2018-12-29T13:45:14.520Z,96829.00
2018-12-29T13:47:44.787Z,96819.42
2018-12-29T13:50:14.570Z,96826.24
2018-12-29T13:55:21.813Z,96829.72
2018-12-29T13:57:52.132Z,96828.37
2018-12-29T14:00:21.303Z,96833.00
2018-12-29T14:02:52.200Z,96827.95
2018-12-29T14:05:25.908Z,96833.76
2018-12-29T14:07:59.300Z,96829.14
2018-12-29T14:10:29.055Z,96821.47
2018-12-29T14:12:58.087Z,96822.85
2018-12-29T14:15:35.024Z,96817.16
2018-12-29T14:18:05.381Z,96813.20
2018-12-29T14:20:36.037Z,96809.14
2018-12-29T14:23:05.337Z,96809.91
2018-12-29T14:25:34.440Z,96806.47
2018-12-29T14:28:03.932Z,96802.17
2018-12-29T14:30:34.569Z,96801.46
2018-12-29T14:33:03.611Z,96803.67
2018-12-29T14:35:33.587Z,96803.79
2018-12-29T14:38:13.296Z,96796.77
2018-12-29T14:40:45.228Z,96797.12
2018-12-29T14:43:14.299Z,96790.16
2018-12-29T14:45:43.741Z,96792.77
2018-12-29T14:48:12.797Z,96778.65
2018-12-29T14:50:45.639Z,96773.94
2018-12-29T14:53:18.876Z,96771.88
2018-12-29T14:55:50.895Z,96763.80
2018-12-29T14:58:22.785Z,96763.08
2018-12-29T15:00:56.455Z,96756.66
2018-12-29T15:03:25.522Z,96754.25
2018-12-29T15:05:57.933Z,96759.48
2018-12-29T15:08:27.006Z,96764.23
2018-12-29T15:10:57.803Z,96763.17
2018-12-29T15:13:26.959Z,96766.58
2018-12-29T15:15:56.415Z,96768.14
2018-12-29T15:18:25.485Z,96764.16
2018-12-29T15:20:55.074Z,96763.61
2018-12-29T15:23:28.057Z,96763.84
2018-12-29T15:25:57.289Z,96755.42
2018-12-29T15:28:26.185Z,96761.61
2018-12-29T15:30:55.228Z,96766.39
2018-12-29T15:33:25.794Z,96773.67
2018-12-29T15:35:54.887Z,96770.74
2018-12-29T15:38:23.958Z,96767.56
2018-12-29T15:43:29.270Z,96769.81
2018-12-29T15:45:58.315Z,96776.33
2018-12-29T15:48:27.370Z,96777.20
2018-12-29T15:50:56.471Z,96778.95
2018-12-29T15:53:25.523Z,96775.19
2018-12-29T15:55:55.024Z,96772.22
2018-12-29T15:58:24.631Z,96771.30
2018-12-29T16:00:53.848Z,96765.58
2018-12-29T16:03:22.910Z,96759.23
2018-12-29T16:05:51.959Z,96761.87
2018-12-29T16:08:21.013Z,96753.14
2018-12-29T16:10:50.052Z,96750.62
2018-12-29T16:13:19.110Z,96750.31
2018-12-29T16:15:48.169Z,96743.90
2018-12-29T16:18:17.222Z,96742.54
2018-12-29T16:20:53.124Z,96741.58
2018-12-29T16:23:15.313Z,96745.33
2018-12-29T16:25:44.976Z,96745.29
2018-12-29T16:28:17.856Z,96745.45
2018-12-29T16:30:46.894Z,96739.29
2018-12-29T16:33:16.021Z,96736.83
2018-12-29T16:35:46.188Z,96725.98
2018-12-29T16:38:15.278Z,96724.31
2018-12-29T16:40:44.399Z,96708.96
2018-12-29T16:43:13.452Z,96712.70
2018-12-29T16:45:42.508Z,96716.16
2018-12-29T16:48:11.566Z,96705.48
2018-12-29T16:50:40.935Z,96695.94
2018-12-29T16:53:10.001Z,96683.37
2018-12-29T16:55:39.028Z,96671.89
2018-12-29T16:58:08.105Z,96664.02
2018-12-29T17:00:37.173Z,96664.61
2018-12-29T17:03:06.210Z,96656.57
2018-12-29T17:05:35.262Z,96648.97
2018-12-29T17:08:04.369Z,96641.94
2018-12-29T17:10:33.436Z,96640.28
2018-12-29T17:13:02.504Z,96639.13
2018-12-29T17:15:31.563Z,96650.43
2018-12-29T17:18:00.617Z,96653.80
2018-12-29T17:20:29.677Z,96646.27
2018-12-29T17:22:58.749Z,96650.97
2018-12-29T17:25:27.808Z,96646.69
2018-12-29T17:27:56.859Z,96645.59
2018-12-29T17:30:25.948Z,96655.61
2018-12-29T17:32:54.995Z,96657.26
2018-12-29T17:37:59.757Z,96657.10
2018-12-29T17:40:31.355Z,96656.72
2018-12-29T17:43:00.857Z,96653.51
2018-12-29T17:45:29.953Z,96660.17
2018-12-29T17:47:59.076Z,96667.60
2018-12-29T17:50:28.143Z,96669.34
2018-12-29T17:52:57.206Z,96661.83
2018-12-29T17:55:26.287Z,96655.30
2018-12-29T17:57:55.380Z,96643.88
2018-12-29T18:00:24.437Z,96639.34
2018-12-29T18:02:53.511Z,96641.62
2018-12-29T18:05:22.578Z,96651.42
2018-12-29T18:07:51.648Z,96652.30
2018-12-29T18:13:00.046Z,96660.33
2018-12-29T18:15:29.108Z,96659.84
2018-12-29T18:17:58.179Z,96662.39
2018-12-29T18:20:27.237Z,96660.33
2018-12-29T18:22:56.298Z,96671.37
2018-12-29T18:25:25.350Z,96670.95
2018-12-29T18:27:54.402Z,96666.14
2018-12-29T18:30:23.453Z,96672.42
2018-12-29T18:32:52.492Z,96668.40
2018-12-29T18:35:21.571Z,96666.97
2018-12-29T18:37:50.618Z,96658.51
2018-12-29T18:40:19.723Z,96650.75
2018-12-29T18:42:48.796Z,96632.73
2018-12-29T18:45:17.882Z,96618.98
2018-12-29T18:47:46.939Z,96625.65
2018-12-29T18:50:15.980Z,96642.59
2018-12-29T18:52:45.064Z,96626.83
2018-12-29T18:55:14.090Z,96613.28
2018-12-29T18:57:48.933Z,96609.41
2018-12-29T19:00:17.981Z,96609.27
2018-12-29T19:02:47.030Z,96600.63
2018-12-29T19:05:16.087Z,96616.20
2018-12-29T19:07:45.154Z,96605.27
2018-12-29T19:10:14.239Z,96599.48
2018-12-29T19:12:43.348Z,96629.04
2018-12-29T19:15:12.404Z,96613.50
2018-12-29T19:17:41.462Z,96614.03
2018-12-29T19:20:10.511Z,96595.11
2018-12-29T19:22:39.661Z,96589.91
2018-12-29T19:25:08.616Z,96584.77
2018-12-29T19:27:37.664Z,96591.44
2018-12-29T19:30:06.742Z,96579.23
2018-12-29T19:32:35.797Z,96554.35
2018-12-29T19:37:41.660Z,96554.47
2018-12-29T19:40:10.721Z,96555.70
2018-12-29T19:42:39.833Z,96575.86
2018-12-29T19:45:08.938Z,96587.32
2018-12-29T19:47:38.003Z,96596.31
2018-12-29T19:50:08.163Z,96588.10
2018-12-29T19:52:37.256Z,96584.78
2018-12-29T19:55:06.317Z,96582.88
2018-12-29T19:57:35.393Z,96578.14
2018-12-29T20:00:04.465Z,96588.08
2018-12-29T20:02:33.548Z,96579.34
2018-12-29T20:05:02.654Z,96601.44
2018-12-29T20:07:32.820Z,96597.16
2018-12-29T20:10:01.870Z,96581.16
2018-12-29T20:12:30.931Z,96571.52
2018-12-29T20:15:00.005Z,96554.02
2018-12-29T20:17:34.859Z,96560.41
2018-12-29T20:20:01.506Z,96532.50
2018-12-29T20:22:27.241Z,96524.06
2018-12-29T20:24:56.310Z,96545.88
2018-12-29T20:27:25.363Z,96553.58
2018-12-29T20:29:54.420Z,96565.57
2018-12-29T20:32:23.495Z,96550.71
2018-12-29T20:34:52.589Z,96567.36
2018-12-29T20:37:21.637Z,96580.02
2018-12-29T20:39:51.589Z,96602.28
2018-12-29T20:42:20.654Z,96604.83
2018-12-29T20:44:51.857Z,96617.71
2018-12-29T20:47:21.325Z,96614.53
2018-12-29T20:52:26.911Z,96614.73
2018-12-29T20:54:56.856Z,96601.15
2018-12-29T20:57:25.925Z,96591.88
2018-12-29T20:59:54.987Z,96592.84
2018-12-29T21:02:24.059Z,96583.91
2018-12-29T21:04:53.103Z,96588.97
2018-12-29T21:07:22.286Z,96582.05
2018-12-29T21:09:51.416Z,96559.52
2018-12-29T21:12:20.455Z,96542.78
2018-12-29T21:14:58.722Z,96522.07
2018-12-29T21:17:28.408Z,96538.64
2018-12-29T21:19:57.497Z,96546.22
2018-12-29T21:22:26.559Z,96551.70
2018-12-29T21:24:55.612Z,96564.50
2018-12-29T21:27:24.676Z,96561.44
2018-12-29T21:29:53.757Z,96578.33
2018-12-29T21:32:22.871Z,96568.05
2018-12-29T21:34:51.907Z,96558.93
2018-12-29T21:37:20.960Z,96556.98
2018-12-29T21:39:50.047Z,96543.45
2018-12-29T21:42:19.099Z,96534.13
2018-12-29T21:44:49.091Z,96515.58
2018-12-29T21:47:18.189Z,96519.74
2018-12-29T21:49:47.277Z,96511.47
2018-12-29T21:52:19.083Z,96494.01
2018-12-29T21:54:48.259Z,96493.34
2018-12-29T21:57:17.336Z,96484.33
2018-12-29T21:59:46.393Z,96486.80
2018-12-29T22:02:15.633Z,96465.58
2018-12-29T22:04:44.718Z,96478.16
2018-12-29T22:07:13.763Z,96461.23
2018-12-29T22:09:42.825Z,96456.35
2018-12-29T22:12:11.930Z,96431.99
2018-12-29T22:14:41.016Z,96446.68
2018-12-29T22:17:10.139Z,96437.07
2018-12-29T22:22:18.925Z,96425.55
2018-12-29T22:24:48.101Z,96405.59
2018-12-29T22:27:18.050Z,96410.97
2018-12-29T22:29:47.146Z,96403.96
2018-12-29T22:32:16.216Z,96396.20
2018-12-29T22:34:45.263Z,96393.19
2018-12-29T22:37:15.339Z,96380.34
2018-12-29T22:39:44.438Z,96379.91
2018-12-29T22:42:13.512Z,96380.23
2018-12-29T22:44:42.576Z,96386.27
2018-12-29T22:47:11.642Z,96386.69
2018-12-29T22:49:40.687Z,96389.41
2018-12-29T22:52:10.686Z,96382.62
2018-12-29T22:54:39.722Z,96383.13
2018-12-29T22:57:08.777Z,96385.41
2018-12-29T22:59:37.871Z,96372.63
2018-12-29T23:02:06.912Z,96366.63
2018-12-29T23:04:35.977Z,96366.85
2018-12-29T23:07:05.079Z,96360.92
2018-12-29T23:09:34.238Z,96377.89
2018-12-29T23:14:39.942Z,96382.84
2018-12-29T23:17:09.043Z,96386.86
2018-12-29T23:19:38.680Z,96395.45
2018-12-29T23:22:08.772Z,96387.30
2018-12-29T23:24:37.833Z,96382.31
2018-12-29T23:27:06.944Z,96386.48
2018-12-29T23:29:36.002Z,96376.97
2018-12-29T23:32:05.104Z,96374.45
2018-12-29T23:34:34.156Z,96370.03
2018-12-29T23:37:03.247Z,96368.68
2018-12-29T23:39:32.300Z,96362.12
2018-12-29T23:42:01.375Z,96364.31
2018-12-29T23:44:30.420Z,96366.48
2018-12-29T23:46:59.465Z,96372.80
2018-12-29T23:49:28.529Z,96368.50
2018-12-29T23:54:33.314Z,96364.49
2018-12-29T23:57:02.390Z,96354.09
2018-12-29T23:59:31.466Z,96358.95
